sensor_id;sensor_type;location;lat;lon;timestamp;temperature;humidity
26270;DHT22;15937;50.612;6.656;2022-09-21T00:01:16;8.50;99.90
26270;DHT22;15937;50.612;6.656;2022-09-21T00:05:18;8.40;99.90
26270;DHT22;15937;50.612;6.656;2022-09-21T00:09:20;8.40;99.90
26270;DHT22;15937;50.612;6.656;2022-09-21T00:13:21;8.50;99.90
26270;DHT22;15937;50.612;6.656;2022-09-21T00:17:24;8.50;99.90
26270;DHT22;15937;50.612;6.656;2022-09-21T00:21:26;8.40;99.90
26270;DHT22;15937;50.612;6.656;2022-09-21T00:25:28;8.30;99.90
26270;DHT22;15937;50.612;6.656;2022-09-21T00:29:30;8.40;99.90
26270;DHT22;15937;50.612;6.656;2022-09-21T00:33:31;8.40;99.90
26270;DHT22;15937;50.612;6.656;2022-09-21T00:37:33;8.30;99.90
26270;DHT22;15937;50.612;6.656;2022-09-21T00:41:35;8.20;99.90
26270;DHT22;15937;50.612;6.656;2022-09-21T00:45:36;8.10;99.90
26270;DHT22;15937;50.612;6.656;2022-09-21T00:49:39;8.00;99.90
26270;DHT22;15937;50.612;6.656;2022-09-21T00:53:41;8.10;99.90
26270;DHT22;15937;50.612;6.656;2022-09-21T00:57:43;8.20;99.90
26270;DHT22;15937;50.612;6.656;2022-09-21T01:01:46;8.20;99.90
26270;DHT22;15937;50.612;6.656;2022-09-21T01:05:48;8.20;99.90
26270;DHT22;15937;50.612;6.656;2022-09-21T01:09:51;8.10;99.90
26270;DHT22;15937;50.612;6.656;2022-09-21T01:14:04;8.20;99.90
26270;DHT22;15937;50.612;6.656;2022-09-21T01:18:11;8.10;99.90
26270;DHT22;15937;50.612;6.656;2022-09-21T01:22:17;8.00;99.90
26270;DHT22;15937;50.612;6.656;2022-09-21T01:30:31;7.90;99.90
26270;DHT22;15937;50.612;6.656;2022-09-21T01:34:38;7.80;99.90
26270;DHT22;15937;50.612;6.656;2022-09-21T01:38:44;7.80;99.90
26270;DHT22;15937;50.612;6.656;2022-09-21T01:42:48;7.90;99.90
26270;DHT22;15937;50.612;6.656;2022-09-21T01:46:51;7.80;99.90
26270;DHT22;15937;50.612;6.656;2022-09-21T01:50:54;7.80;99.90
26270;DHT22;15937;50.612;6.656;2022-09-21T01:54:58;7.80;99.90
26270;DHT22;15937;50.612;6.656;2022-09-21T02:07:23;7.70;99.90
26270;DHT22;15937;50.612;6.656;2022-09-21T02:11:25;7.70;99.90
26270;DHT22;15937;50.612;6.656;2022-09-21T02:15:31;7.60;99.90
26270;DHT22;15937;50.612;6.656;2022-09-21T02:19:42;7.60;99.90
26270;DHT22;15937;50.612;6.656;2022-09-21T02:23:47;7.60;99.90
26270;DHT22;15937;50.612;6.656;2022-09-21T02:28:07;7.70;99.90
26270;DHT22;15937;50.612;6.656;2022-09-21T02:36:21;7.60;99.90
26270;DHT22;15937;50.612;6.656;2022-09-21T02:44:29;7.60;99.90
26270;DHT22;15937;50.612;6.656;2022-09-21T02:48:37;7.60;99.90
26270;DHT22;15937;50.612;6.656;2022-09-21T02:52:40;7.60;99.90
26270;DHT22;15937;50.612;6.656;2022-09-21T02:56:43;7.40;99.90
26270;DHT22;15937;50.612;6.656;2022-09-21T03:00:46;7.30;99.90
26270;DHT22;15937;50.612;6.656;2022-09-21T03:04:48;7.30;99.90
26270;DHT22;15937;50.612;6.656;2022-09-21T03:08:50;7.30;99.90
26270;DHT22;15937;50.612;6.656;2022-09-21T03:12:55;7.10;99.90
26270;DHT22;15937;50.612;6.656;2022-09-21T03:16:58;7.20;99.90
26270;DHT22;15937;50.612;6.656;2022-09-21T03:20:59;7.20;99.90
26270;DHT22;15937;50.612;6.656;2022-09-21T03:25:02;7.00;99.90
26270;DHT22;15937;50.612;6.656;2022-09-21T03:29:04;6.90;99.90
26270;DHT22;15937;50.612;6.656;2022-09-21T03:33:06;7.00;99.90
26270;DHT22;15937;50.612;6.656;2022-09-21T03:37:08;6.80;99.90
26270;DHT22;15937;50.612;6.656;2022-09-21T03:41:10;6.90;99.90
26270;DHT22;15937;50.612;6.656;2022-09-21T03:45:13;7.00;99.90
26270;DHT22;15937;50.612;6.656;2022-09-21T03:49:15;7.10;99.90
26270;DHT22;15937;50.612;6.656;2022-09-21T03:53:17;7.20;99.90
26270;DHT22;15937;50.612;6.656;2022-09-21T03:57:18;7.10;99.90
26270;DHT22;15937;50.612;6.656;2022-09-21T04:01:20;7.00;99.90
26270;DHT22;15937;50.612;6.656;2022-09-21T04:05:21;7.00;99.90
26270;DHT22;15937;50.612;6.656;2022-09-21T04:09:24;7.10;99.90
26270;DHT22;15937;50.612;6.656;2022-09-21T04:13:26;7.00;99.90
26270;DHT22;15937;50.612;6.656;2022-09-21T04:17:28;7.00;99.90
26270;DHT22;15937;50.612;6.656;2022-09-21T04:21:31;7.10;99.90
26270;DHT22;15937;50.612;6.656;2022-09-21T04:25:34;7.10;99.90
26270;DHT22;15937;50.612;6.656;2022-09-21T04:29:37;7.00;99.90
26270;DHT22;15937;50.612;6.656;2022-09-21T04:33:39;7.00;99.90
26270;DHT22;15937;50.612;6.656;2022-09-21T04:37:41;6.90;99.90
26270;DHT22;15937;50.612;6.656;2022-09-21T04:41:43;6.90;99.90
26270;DHT22;15937;50.612;6.656;2022-09-21T04:45:45;6.70;99.90
26270;DHT22;15937;50.612;6.656;2022-09-21T04:49:46;6.80;99.90
26270;DHT22;15937;50.612;6.656;2022-09-21T04:53:48;6.60;99.90
26270;DHT22;15937;50.612;6.656;2022-09-21T04:57:49;6.60;99.90
26270;DHT22;15937;50.612;6.656;2022-09-21T05:01:51;6.60;99.90
26270;DHT22;15937;50.612;6.656;2022-09-21T05:05:53;6.50;99.90
26270;DHT22;15937;50.612;6.656;2022-09-21T05:09:55;6.50;99.90
26270;DHT22;15937;50.612;6.656;2022-09-21T05:14:02;6.30;99.90
26270;DHT22;15937;50.612;6.656;2022-09-21T05:18:04;6.40;99.90
26270;DHT22;15937;50.612;6.656;2022-09-21T05:22:06;6.40;99.90
26270;DHT22;15937;50.612;6.656;2022-09-21T05:26:07;6.40;99.90
26270;DHT22;15937;50.612;6.656;2022-09-21T05:30:09;6.40;99.90
26270;DHT22;15937;50.612;6.656;2022-09-21T05:34:30;6.50;99.90
26270;DHT22;15937;50.612;6.656;2022-09-21T05:38:37;6.60;99.90
26270;DHT22;15937;50.612;6.656;2022-09-21T05:42:39;6.70;99.90
26270;DHT22;15937;50.612;6.656;2022-09-21T05:46:41;6.60;99.90
26270;DHT22;15937;50.612;6.656;2022-09-21T05:59:28;6.90;99.90
26270;DHT22;15937;50.612;6.656;2022-09-21T06:03:33;7.00;99.90
26270;DHT22;15937;50.612;6.656;2022-09-21T06:07:36;7.10;99.90
26270;DHT22;15937;50.612;6.656;2022-09-21T06:11:38;7.10;99.90
26270;DHT22;15937;50.612;6.656;2022-09-21T06:15:39;7.20;99.90
26270;DHT22;15937;50.612;6.656;2022-09-21T06:19:41;7.30;99.90
26270;DHT22;15937;50.612;6.656;2022-09-21T06:23:42;7.50;99.90
26270;DHT22;15937;50.612;6.656;2022-09-21T06:27:44;7.60;99.90
26270;DHT22;15937;50.612;6.656;2022-09-21T06:31:46;7.80;99.90
26270;DHT22;15937;50.612;6.656;2022-09-21T06:35:54;7.90;99.90
26270;DHT22;15937;50.612;6.656;2022-09-21T06:39:56;8.00;99.90
26270;DHT22;15937;50.612;6.656;2022-09-21T06:43:57;8.00;99.90
26270;DHT22;15937;50.612;6.656;2022-09-21T06:47:59;8.10;99.90
26270;DHT22;15937;50.612;6.656;2022-09-21T06:52:00;8.10;99.90
26270;DHT22;15937;50.612;6.656;2022-09-21T06:56:03;8.00;99.90
26270;DHT22;15937;50.612;6.656;2022-09-21T07:00:06;8.30;99.90
26270;DHT22;15937;50.612;6.656;2022-09-21T07:04:08;8.50;99.90
26270;DHT22;15937;50.612;6.656;2022-09-21T07:08:09;8.40;99.90
26270;DHT22;15937;50.612;6.656;2022-09-21T07:12:31;8.60;99.90
26270;DHT22;15937;50.612;6.656;2022-09-21T07:16:34;8.70;99.90
26270;DHT22;15937;50.612;6.656;2022-09-21T07:20:37;8.90;99.90
26270;DHT22;15937;50.612;6.656;2022-09-21T07:24:40;9.40;99.90
26270;DHT22;15937;50.612;6.656;2022-09-21T07:28:41;9.50;99.90
26270;DHT22;15937;50.612;6.656;2022-09-21T07:32:43;9.60;99.90
26270;DHT22;15937;50.612;6.656;2022-09-21T07:36:45;9.80;99.90
26270;DHT22;15937;50.612;6.656;2022-09-21T07:40:46;9.80;99.90
26270;DHT22;15937;50.612;6.656;2022-09-21T07:44:48;10.00;99.90
26270;DHT22;15937;50.612;6.656;2022-09-21T07:48:55;10.20;99.90
26270;DHT22;15937;50.612;6.656;2022-09-21T07:52:57;10.30;99.90
26270;DHT22;15937;50.612;6.656;2022-09-21T07:56:59;10.50;99.90
26270;DHT22;15937;50.612;6.656;2022-09-21T08:01:19;10.80;99.90
26270;DHT22;15937;50.612;6.656;2022-09-21T08:05:21;10.90;99.90
26270;DHT22;15937;50.612;6.656;2022-09-21T08:09:23;11.20;99.90
26270;DHT22;15937;50.612;6.656;2022-09-21T08:13:25;11.70;99.90
26270;DHT22;15937;50.612;6.656;2022-09-21T08:17:27;11.70;99.90
26270;DHT22;15937;50.612;6.656;2022-09-21T08:21:30;11.60;99.90
26270;DHT22;15937;50.612;6.656;2022-09-21T08:25:31;11.70;99.90
26270;DHT22;15937;50.612;6.656;2022-09-21T08:29:34;12.00;99.90
26270;DHT22;15937;50.612;6.656;2022-09-21T08:33:36;12.10;99.90
26270;DHT22;15937;50.612;6.656;2022-09-21T08:37:40;12.40;99.90
26270;DHT22;15937;50.612;6.656;2022-09-21T08:41:45;12.50;99.90
26270;DHT22;15937;50.612;6.656;2022-09-21T08:45:48;12.50;99.90
26270;DHT22;15937;50.612;6.656;2022-09-21T08:49:54;12.50;99.90
26270;DHT22;15937;50.612;6.656;2022-09-21T08:54:02;12.70;99.90
26270;DHT22;15937;50.612;6.656;2022-09-21T08:58:14;12.90;99.90
26270;DHT22;15937;50.612;6.656;2022-09-21T09:10:48;13.20;99.90
26270;DHT22;15937;50.612;6.656;2022-09-21T09:31:30;13.70;99.90
26270;DHT22;15937;50.612;6.656;2022-09-21T09:35:34;13.90;99.90
26270;DHT22;15937;50.612;6.656;2022-09-21T09:39:37;14.00;99.90
26270;DHT22;15937;50.612;6.656;2022-09-21T09:52:04;14.30;99.90
26270;DHT22;15937;50.612;6.656;2022-09-21T09:56:09;14.40;99.90
26270;DHT22;15937;50.612;6.656;2022-09-21T10:00:12;14.40;99.90
26270;DHT22;15937;50.612;6.656;2022-09-21T10:04:15;14.40;99.90
26270;DHT22;15937;50.612;6.656;2022-09-21T10:12:39;14.50;99.90
26270;DHT22;15937;50.612;6.656;2022-09-21T10:16:41;14.70;99.90
26270;DHT22;15937;50.612;6.656;2022-09-21T10:25:14;14.40;99.90
26270;DHT22;15937;50.612;6.656;2022-09-21T10:33:19;14.50;99.90
26270;DHT22;15937;50.612;6.656;2022-09-21T10:41:25;14.30;99.90
26270;DHT22;15937;50.612;6.656;2022-09-21T10:45:31;13.90;99.90
26270;DHT22;15937;50.612;6.656;2022-09-21T10:49:35;14.10;99.90
26270;DHT22;15937;50.612;6.656;2022-09-21T10:53:36;14.40;99.90
26270;DHT22;15937;50.612;6.656;2022-09-21T10:57:38;14.70;99.90
26270;DHT22;15937;50.612;6.656;2022-09-21T11:01:42;14.40;99.90
26270;DHT22;15937;50.612;6.656;2022-09-21T11:05:45;14.30;99.90
26270;DHT22;15937;50.612;6.656;2022-09-21T11:09:59;14.20;99.90
26270;DHT22;15937;50.612;6.656;2022-09-21T11:14:13;14.10;99.90
26270;DHT22;15937;50.612;6.656;2022-09-21T11:18:21;14.20;99.90
26270;DHT22;15937;50.612;6.656;2022-09-21T11:22:28;14.10;99.90
26270;DHT22;15937;50.612;6.656;2022-09-21T11:26:41;14.30;99.90
26270;DHT22;15937;50.612;6.656;2022-09-21T12:00:20;14.60;99.90
26270;DHT22;15937;50.612;6.656;2022-09-21T12:04:35;14.60;99.90
26270;DHT22;15937;50.612;6.656;2022-09-21T12:08:48;14.60;99.90
26270;DHT22;15937;50.612;6.656;2022-09-21T12:12:56;14.70;99.90
26270;DHT22;15937;50.612;6.656;2022-09-21T12:21:20;15.20;99.90
26270;DHT22;15937;50.612;6.656;2022-09-21T12:25:27;16.00;99.90
26270;DHT22;15937;50.612;6.656;2022-09-21T12:29:46;16.00;99.90
26270;DHT22;15937;50.612;6.656;2022-09-21T12:33:54;16.20;99.90
26270;DHT22;15937;50.612;6.656;2022-09-21T12:38:00;16.20;99.90
26270;DHT22;15937;50.612;6.656;2022-09-21T12:42:06;16.20;99.90
26270;DHT22;15937;50.612;6.656;2022-09-21T12:50:33;15.50;99.90
26270;DHT22;15937;50.612;6.656;2022-09-21T12:54:41;15.50;99.90
26270;DHT22;15937;50.612;6.656;2022-09-21T12:58:49;15.50;99.90
26270;DHT22;15937;50.612;6.656;2022-09-21T13:03:00;15.70;99.90
26270;DHT22;15937;50.612;6.656;2022-09-21T13:07:23;16.20;99.90
26270;DHT22;15937;50.612;6.656;2022-09-21T13:11:31;16.20;99.90
26270;DHT22;15937;50.612;6.656;2022-09-21T13:15:41;16.00;99.90
26270;DHT22;15937;50.612;6.656;2022-09-21T13:19:43;15.90;99.90
26270;DHT22;15937;50.612;6.656;2022-09-21T13:23:53;16.00;99.90
26270;DHT22;15937;50.612;6.656;2022-09-21T13:36:33;16.10;99.90
26270;DHT22;15937;50.612;6.656;2022-09-21T13:40:35;16.10;99.90
26270;DHT22;15937;50.612;6.656;2022-09-21T13:44:39;16.40;99.90
26270;DHT22;15937;50.612;6.656;2022-09-21T13:48:41;15.80;99.90
26270;DHT22;15937;50.612;6.656;2022-09-21T13:52:43;15.90;99.90
26270;DHT22;15937;50.612;6.656;2022-09-21T13:56:46;15.70;99.90
26270;DHT22;15937;50.612;6.656;2022-09-21T14:00:58;15.70;99.90
26270;DHT22;15937;50.612;6.656;2022-09-21T14:05:02;15.80;99.90
26270;DHT22;15937;50.612;6.656;2022-09-21T14:09:06;15.80;99.90
26270;DHT22;15937;50.612;6.656;2022-09-21T14:13:22;15.80;99.90
26270;DHT22;15937;50.612;6.656;2022-09-21T14:17:35;15.90;99.90
26270;DHT22;15937;50.612;6.656;2022-09-21T14:21:37;15.80;99.90
26270;DHT22;15937;50.612;6.656;2022-09-21T14:30:17;15.80;99.90
26270;DHT22;15937;50.612;6.656;2022-09-21T14:34:26;15.80;99.90
26270;DHT22;15937;50.612;6.656;2022-09-21T14:38:41;15.90;99.90
26270;DHT22;15937;50.612;6.656;2022-09-21T14:42:43;16.20;99.90
26270;DHT22;15937;50.612;6.656;2022-09-21T14:46:53;16.10;99.90
26270;DHT22;15937;50.612;6.656;2022-09-21T14:59:34;16.20;99.90
26270;DHT22;15937;50.612;6.656;2022-09-21T15:08:04;16.10;99.90
26270;DHT22;15937;50.612;6.656;2022-09-21T15:16:47;15.70;99.90
26270;DHT22;15937;50.612;6.656;2022-09-21T15:20:57;15.70;99.90
26270;DHT22;15937;50.612;6.656;2022-09-21T15:25:02;15.50;99.90
26270;DHT22;15937;50.612;6.656;2022-09-21T15:29:04;15.50;99.90
26270;DHT22;15937;50.612;6.656;2022-09-21T15:33:10;15.30;99.90
26270;DHT22;15937;50.612;6.656;2022-09-21T15:37:14;15.20;99.90
26270;DHT22;15937;50.612;6.656;2022-09-21T15:41:36;15.30;99.90
26270;DHT22;15937;50.612;6.656;2022-09-21T15:50:01;15.80;99.90
26270;DHT22;15937;50.612;6.656;2022-09-21T15:58:30;16.10;99.90
26270;DHT22;15937;50.612;6.656;2022-09-21T16:02:37;16.10;99.90
26270;DHT22;15937;50.612;6.656;2022-09-21T16:06:43;16.30;99.90
26270;DHT22;15937;50.612;6.656;2022-09-21T16:10:47;16.50;99.90
26270;DHT22;15937;50.612;6.656;2022-09-21T16:14:49;16.60;99.90
26270;DHT22;15937;50.612;6.656;2022-09-21T16:19:02;16.80;99.90
26270;DHT22;15937;50.612;6.656;2022-09-21T16:23:08;16.80;99.90
26270;DHT22;15937;50.612;6.656;2022-09-21T16:27:15;16.50;99.90
26270;DHT22;15937;50.612;6.656;2022-09-21T16:35:25;16.50;99.90
26270;DHT22;15937;50.612;6.656;2022-09-21T16:39:31;16.30;99.90
26270;DHT22;15937;50.612;6.656;2022-09-21T16:43:35;16.00;99.90
26270;DHT22;15937;50.612;6.656;2022-09-21T16:47:43;15.90;99.90
26270;DHT22;15937;50.612;6.656;2022-09-21T16:51:45;15.80;99.90
26270;DHT22;15937;50.612;6.656;2022-09-21T16:55:47;15.60;99.90
26270;DHT22;15937;50.612;6.656;2022-09-21T16:59:49;15.50;99.90
26270;DHT22;15937;50.612;6.656;2022-09-21T17:03:51;15.50;99.90
26270;DHT22;15937;50.612;6.656;2022-09-21T17:07:53;15.30;99.90
26270;DHT22;15937;50.612;6.656;2022-09-21T17:11:56;15.30;99.90
26270;DHT22;15937;50.612;6.656;2022-09-21T17:16:00;15.10;99.90
26270;DHT22;15937;50.612;6.656;2022-09-21T17:20:07;14.80;99.90
26270;DHT22;15937;50.612;6.656;2022-09-21T17:24:14;14.70;99.90
26270;DHT22;15937;50.612;6.656;2022-09-21T17:28:36;14.40;99.90
26270;DHT22;15937;50.612;6.656;2022-09-21T17:32:40;14.20;99.90
26270;DHT22;15937;50.612;6.656;2022-09-21T17:36:43;14.00;99.90
26270;DHT22;15937;50.612;6.656;2022-09-21T17:40:45;13.80;99.90
26270;DHT22;15937;50.612;6.656;2022-09-21T17:44:58;13.80;99.90
26270;DHT22;15937;50.612;6.656;2022-09-21T17:49:02;13.70;99.90
26270;DHT22;15937;50.612;6.656;2022-09-21T17:53:04;13.50;99.90
26270;DHT22;15937;50.612;6.656;2022-09-21T17:58:31;13.40;99.90
26270;DHT22;15937;50.612;6.656;2022-09-21T18:01:57;13.20;99.90
26270;DHT22;15937;50.612;6.656;2022-09-21T18:06:00;13.10;99.90
26270;DHT22;15937;50.612;6.656;2022-09-21T18:10:02;13.00;99.90
26270;DHT22;15937;50.612;6.656;2022-09-21T18:18:19;12.70;99.90
26270;DHT22;15937;50.612;6.656;2022-09-21T18:26:36;12.30;99.90
26270;DHT22;15937;50.612;6.656;2022-09-21T18:30:43;12.20;99.90
26270;DHT22;15937;50.612;6.656;2022-09-21T18:35:03;12.00;99.90
26270;DHT22;15937;50.612;6.656;2022-09-21T18:47:31;11.40;99.90
26270;DHT22;15937;50.612;6.656;2022-09-21T18:56:05;11.50;99.90
26270;DHT22;15937;50.612;6.656;2022-09-21T19:00:10;11.40;99.90
26270;DHT22;15937;50.612;6.656;2022-09-21T19:04:12;11.30;99.90
26270;DHT22;15937;50.612;6.656;2022-09-21T19:08:28;11.20;99.90
26270;DHT22;15937;50.612;6.656;2022-09-21T19:12:45;11.30;99.90
26270;DHT22;15937;50.612;6.656;2022-09-21T19:25:21;11.00;99.90
26270;DHT22;15937;50.612;6.656;2022-09-21T19:33:30;11.00;99.90
26270;DHT22;15937;50.612;6.656;2022-09-21T19:37:54;10.80;99.90
26270;DHT22;15937;50.612;6.656;2022-09-21T19:42:06;10.70;99.90
26270;DHT22;15937;50.612;6.656;2022-09-21T19:46:16;10.70;99.90
26270;DHT22;15937;50.612;6.656;2022-09-21T19:50:21;10.70;99.90
26270;DHT22;15937;50.612;6.656;2022-09-21T19:54:24;10.60;99.90
26270;DHT22;15937;50.612;6.656;2022-09-21T19:58:47;10.40;99.90
26270;DHT22;15937;50.612;6.656;2022-09-21T20:03:15;10.40;99.90
26270;DHT22;15937;50.612;6.656;2022-09-21T20:07:42;10.30;99.90
26270;DHT22;15937;50.612;6.656;2022-09-21T20:11:48;10.20;99.90
26270;DHT22;15937;50.612;6.656;2022-09-21T20:15:53;10.10;99.90
26270;DHT22;15937;50.612;6.656;2022-09-21T20:20:02;10.10;99.90
26270;DHT22;15937;50.612;6.656;2022-09-21T20:24:11;10.00;99.90
26270;DHT22;15937;50.612;6.656;2022-09-21T20:28:14;10.10;99.90
26270;DHT22;15937;50.612;6.656;2022-09-21T20:32:16;10.00;99.90
26270;DHT22;15937;50.612;6.656;2022-09-21T20:36:18;9.80;99.90
26270;DHT22;15937;50.612;6.656;2022-09-21T20:40:21;9.80;99.90
26270;DHT22;15937;50.612;6.656;2022-09-21T20:44:27;9.80;99.90
26270;DHT22;15937;50.612;6.656;2022-09-21T20:48:28;9.70;99.90
26270;DHT22;15937;50.612;6.656;2022-09-21T20:52:30;9.70;99.90
26270;DHT22;15937;50.612;6.656;2022-09-21T20:56:31;9.60;99.90
26270;DHT22;15937;50.612;6.656;2022-09-21T21:00:35;9.60;99.90
26270;DHT22;15937;50.612;6.656;2022-09-21T21:04:38;9.40;99.90
26270;DHT22;15937;50.612;6.656;2022-09-21T21:08:40;9.40;99.90
26270;DHT22;15937;50.612;6.656;2022-09-21T21:12:41;9.40;99.90
26270;DHT22;15937;50.612;6.656;2022-09-21T21:16:43;9.40;99.90
26270;DHT22;15937;50.612;6.656;2022-09-21T21:20:45;9.30;99.90
26270;DHT22;15937;50.612;6.656;2022-09-21T21:24:46;9.30;99.90
26270;DHT22;15937;50.612;6.656;2022-09-21T21:28:48;9.30;99.90
26270;DHT22;15937;50.612;6.656;2022-09-21T21:32:53;9.30;99.90
26270;DHT22;15937;50.612;6.656;2022-09-21T21:36:54;9.30;99.90
26270;DHT22;15937;50.612;6.656;2022-09-21T21:40:56;9.10;99.90
26270;DHT22;15937;50.612;6.656;2022-09-21T21:44:58;9.10;99.90
26270;DHT22;15937;50.612;6.656;2022-09-21T21:49:00;9.10;99.90
26270;DHT22;15937;50.612;6.656;2022-09-21T21:53:01;9.10;99.90
26270;DHT22;15937;50.612;6.656;2022-09-21T21:57:03;9.10;99.90
26270;DHT22;15937;50.612;6.656;2022-09-21T22:05:08;9.00;99.90
26270;DHT22;15937;50.612;6.656;2022-09-21T22:09:10;9.00;99.90
26270;DHT22;15937;50.612;6.656;2022-09-21T22:13:12;9.10;99.90
26270;DHT22;15937;50.612;6.656;2022-09-21T22:17:16;9.10;99.90
26270;DHT22;15937;50.612;6.656;2022-09-21T22:25:24;9.00;99.90
26270;DHT22;15937;50.612;6.656;2022-09-21T22:29:25;9.00;99.90
26270;DHT22;15937;50.612;6.656;2022-09-21T22:33:31;9.00;99.90
26270;DHT22;15937;50.612;6.656;2022-09-21T22:37:33;9.00;99.90
26270;DHT22;15937;50.612;6.656;2022-09-21T22:41:36;9.00;99.90
26270;DHT22;15937;50.612;6.656;2022-09-21T22:45:38;8.90;99.90
26270;DHT22;15937;50.612;6.656;2022-09-21T22:49:39;8.70;99.90
26270;DHT22;15937;50.612;6.656;2022-09-21T22:53:41;8.50;99.90
26270;DHT22;15937;50.612;6.656;2022-09-21T22:57:43;8.50;99.90
26270;DHT22;15937;50.612;6.656;2022-09-21T23:01:44;8.40;99.90
26270;DHT22;15937;50.612;6.656;2022-09-21T23:05:54;8.50;99.90
26270;DHT22;15937;50.612;6.656;2022-09-21T23:09:55;8.50;99.90
26270;DHT22;15937;50.612;6.656;2022-09-21T23:13:57;8.50;99.90
26270;DHT22;15937;50.612;6.656;2022-09-21T23:17:59;8.40;99.90
26270;DHT22;15937;50.612;6.656;2022-09-21T23:22:00;8.50;99.90
26270;DHT22;15937;50.612;6.656;2022-09-21T23:26:05;8.40;99.90
26270;DHT22;15937;50.612;6.656;2022-09-21T23:30:07;8.30;99.90
26270;DHT22;15937;50.612;6.656;2022-09-21T23:34:09;8.20;99.90
26270;DHT22;15937;50.612;6.656;2022-09-21T23:38:16;8.10;99.90
26270;DHT22;15937;50.612;6.656;2022-09-21T23:42:18;8.20;99.90
26270;DHT22;15937;50.612;6.656;2022-09-21T23:46:21;8.20;99.90
26270;DHT22;15937;50.612;6.656;2022-09-21T23:50:23;8.10;99.90
26270;DHT22;15937;50.612;6.656;2022-09-21T23:54:25;8.10;99.90
26270;DHT22;15937;50.612;6.656;2022-09-21T23:58:26;8.10;99.90
